Hlavní strana
METAR-TAF:

METAR-TAF

Letiště :

Letiště Gran Canaria

Gran Canaria, Španělsko

zeměpisná šířka: 27-56N, zeměpisná délka: 015-23W, výška: 23 m

Aktuální stav počasí

Zpráva byla vytvořena před 22 minutami, v 10:30 UTC
Severní vítr 24 kt s nárazy do 34 kt
Teplota 25°C
Vlhkost vzduchu 57%
Tlak 1016 hPa
Viditelnost 10 km a více
Skoro jasno ve výšce 2500 ft

METAR: GCLP 221030Z 01024G34KT 9999 FEW025 25/16 Q1016 NOSIG

Čas: 11:52 (10:52 UTC)

Předpověď počasí

Zpráva byla vytvořena před 2 hodinami a 52 minutami, v 08:00 UTC
Předpověď platná od 22 v 09 UTC do 23 v 09 UTC
Severní vítr 26 kt
Viditelnost 10 km a více
Skoro jasno ve výšce 2500 ft
Dočasný
od 22 v 09 UTC do 22 v 19 UTC
Severní vítr 26 kt s nárazy do 36 kt

TAF: GCLP 220800Z 2209/2309 01026KT 9999 FEW025 TX27/2214Z TN21/2305Z TEMPO 2209/2219 36026G36KT

Stav a předpovědi počasí z více než 4 000 letišť (zprávy METAR a TAF).

Červené a žluté tečky na mapě představují dostupné meteorologické stanice.

Když kurzor umístíte na tečku, zobrazí se název stanice.

Pak kliknutím zobrazíte stav a předpověď počasí.

Chcete-li změnit mapu, kliknutím na zelené tlačítko se znaménkem +mapu přiblížíte, kliknutím na zelené tlačítko se znaménkem – mapu oddálíte a kliknutím na zelené šipky přejdete na sousední mapy.


METAR-TAF: